Time;durP1;ratioP1;P1;durP2;ratioP2;P2;SDS_P1;SDS_P2;PMS_P1;PMS_P2;Temp;Humidity;BMP_temperature;BMP_pressure;BME280_temperature;BME280_humidity;BME280_pressure;Samples;Min_cycle;Max_cycle;Signal;HPM_P1;HPM_P2
2022/11/21 00:00:56;;;;;;;15.10;3.07;;;;;;;6.41;88.63;99495.69;4930663;29;20541;-46
2022/11/21 00:03:23;;;;;;;15.68;3.42;;;;;;;6.42;88.51;99478.88;4931506;29;20422;-46
2022/11/21 00:05:50;;;;;;;16.77;3.30;;;;;;;6.43;88.57;99471.44;4918915;29;20054;-46
2022/11/21 00:08:19;;;;;;;8.57;2.38;;;;;;;6.46;88.67;99459.75;4930923;29;20495;-47
2022/11/21 00:10:47;;;;;;;7.95;2.38;;;;;;;6.48;88.51;99460.19;4942533;29;20047;-51
2022/11/21 00:13:19;;;;;;;9.90;2.85;;;;;;;6.51;88.38;99452.00;4925809;29;20058;-46
2022/11/21 00:15:46;;;;;;;10.43;3.30;;;;;;;6.51;88.37;99438.28;4929759;29;20054;-46
2022/11/21 00:18:14;;;;;;;18.80;3.97;;;;;;;6.55;88.29;99428.19;4935797;29;20370;-45
2022/11/21 00:20:42;;;;;;;23.25;3.45;;;;;;;6.58;88.10;99421.19;4930450;29;20051;-46
2022/11/21 00:23:09;;;;;;;12.80;2.72;;;;;;;6.64;88.33;99426.09;4931559;29;20131;-45
2022/11/21 00:25:37;;;;;;;17.77;3.40;;;;;;;6.69;88.03;99414.03;4930951;29;20059;-53
2022/11/21 00:28:04;;;;;;;7.78;2.63;;;;;;;6.79;88.19;99415.47;4930671;29;20172;-46
2022/11/21 00:30:31;;;;;;;12.57;3.50;;;;;;;6.85;87.91;99411.31;4931586;29;20043;-46
2022/11/21 00:32:58;;;;;;;15.82;3.67;;;;;;;6.90;88.02;99378.03;4931226;29;20115;-50
2022/11/21 00:35:25;;;;;;;12.45;3.22;;;;;;;6.96;87.98;99371.13;4931421;29;20071;-46
2022/11/21 00:37:52;;;;;;;20.95;3.45;;;;;;;7.00;88.09;99367.28;4930734;29;20474;-46
2022/11/21 00:40:19;;;;;;;23.85;5.30;;;;;;;7.06;87.90;99360.38;4931052;29;20056;-45
2022/11/21 00:42:45;;;;;;;19.58;4.05;;;;;;;7.09;87.87;99353.38;4931185;29;20115;-49
2022/11/21 00:45:12;;;;;;;11.18;2.60;;;;;;;7.13;87.90;99340.47;4929493;29;20162;-46
2022/11/21 00:47:39;;;;;;;13.63;5.25;;;;;;;7.12;87.82;99330.66;4930312;29;20050;-46
2022/11/21 00:50:06;;;;;;;14.43;3.70;;;;;;;7.11;87.73;99313.34;4931198;29;20450;-45
2022/11/21 00:52:32;;;;;;;16.48;3.75;;;;;;;7.09;87.81;99303.84;4930716;29;20082;-47
2022/11/21 00:54:59;;;;;;;13.35;2.80;;;;;;;7.07;87.94;99300.66;4931159;29;20427;-46
2022/11/21 00:57:26;;;;;;;15.15;3.67;;;;;;;7.04;88.15;99301.34;4929904;29;20506;-46
2022/11/21 00:59:53;;;;;;;21.92;3.45;;;;;;;7.01;88.08;99285.56;4931143;29;20090;-46
2022/11/21 01:02:20;;;;;;;15.75;3.10;;;;;;;6.98;88.29;99292.56;4917351;29;20522;-46
2022/11/21 01:04:46;;;;;;;19.92;3.40;;;;;;;6.97;88.42;99288.22;4931259;29;20052;-46
2022/11/21 01:07:14;;;;;;;15.63;3.20;;;;;;;6.97;88.58;99276.41;4930590;29;20055;-46
2022/11/21 01:09:40;;;;;;;19.63;5.40;;;;;;;6.97;88.78;99268.16;4929886;29;20426;-45
2022/11/21 01:12:07;;;;;;;16.50;2.92;;;;;;;6.99;88.80;99257.59;4930414;29;20423;-46
2022/11/21 01:14:34;;;;;;;26.13;4.10;;;;;;;7.04;88.95;99254.59;4929926;29;20144;-49
2022/11/21 01:17:01;;;;;;;13.35;3.30;;;;;;;7.07;88.87;99251.13;4929223;29;20451;-45
2022/11/21 01:19:27;;;;;;;24.38;3.63;;;;;;;7.11;88.92;99236.28;4929583;29;20163;-45
2022/11/21 01:21:54;;;;;;;15.05;2.60;;;;;;;7.14;88.92;99226.50;4930477;29;20142;-43
2022/11/21 01:24:21;;;;;;;18.48;2.58;;;;;;;7.15;89.12;99217.06;4930387;29;20445;-43
2022/11/21 01:26:49;;;;;;;20.92;3.05;;;;;;;7.15;89.08;99209.63;4930305;29;20071;-45
2022/11/21 01:29:16;;;;;;;19.70;4.13;;;;;;;7.14;89.25;99196.22;4930130;29;20122;-44
2022/11/21 01:31:43;;;;;;;22.67;5.00;;;;;;;7.13;89.63;99189.13;4930350;29;20565;-43
2022/11/21 01:34:10;;;;;;;25.20;4.13;;;;;;;7.13;89.46;99183.63;4929711;29;20058;-44
2022/11/21 01:36:37;;;;;;;18.77;2.75;;;;;;;7.13;89.57;99172.59;4928385;29;20123;-44
2022/11/21 01:39:05;;;;;;;18.63;3.50;;;;;;;7.13;89.65;99158.84;4928576;29;20052;-44
2022/11/21 01:41:35;;;;;;;15.38;3.45;;;;;;;7.12;89.79;99155.28;4928281;29;20368;-44
2022/11/21 01:44:05;;;;;;;18.17;3.17;;;;;;;7.12;89.88;99144.28;4912198;29;20039;-44
2022/11/21 01:46:32;;;;;;;19.20;3.25;;;;;;;7.13;89.94;99131.31;4928832;29;20142;-44
2022/11/21 01:49:03;;;;;;;14.23;2.83;;;;;;;7.12;90.23;99116.00;4910717;29;20043;-44
2022/11/21 01:51:36;;;;;;;20.33;3.85;;;;;;;7.12;90.31;99124.25;4928454;29;20393;-44
2022/11/21 01:54:26;;;;;;;18.08;4.72;;;;;;;7.13;90.67;99118.38;4929687;29;20044;-44
2022/11/21 01:57:03;;;;;;;15.52;4.93;;;;;;;7.15;90.62;99104.25;4927908;29;20079;-44
2022/11/21 01:59:36;;;;;;;19.33;5.40;;;;;;;7.15;90.91;99095.97;4925589;29;20158;-44
2022/11/21 02:02:06;;;;;;;21.00;4.13;;;;;;;7.14;90.96;99081.44;4927893;29;20047;-44
2022/11/21 02:04:35;;;;;;;12.77;3.22;;;;;;;7.16;91.28;99061.81;4927876;29;20050;-46
2022/11/21 02:07:05;;;;;;;17.15;3.65;;;;;;;7.18;91.31;99056.72;4928148;29;20083;-44
2022/11/21 02:09:34;;;;;;;18.08;3.47;;;;;;;7.19;91.61;99039.06;4928466;29;20482;-44
2022/11/21 02:12:06;;;;;;;21.17;3.28;;;;;;;7.21;92.30;99021.03;4927820;29;20134;-44
2022/11/21 02:14:35;;;;;;;16.88;3.60;;;;;;;7.23;92.01;99024.22;4926808;29;20122;-46
2022/11/21 02:17:05;;;;;;;24.15;5.22;;;;;;;7.24;92.06;99001.03;4928435;29;20062;-44
2022/11/21 02:19:55;;;;;;;27.60;3.35;;;;;;;7.26;92.39;98992.41;4926173;29;20047;-49
2022/11/21 02:22:39;;;;;;;19.77;3.97;;;;;;;7.27;92.53;98980.25;4928702;29;20127;-45
2022/11/21 02:25:08;;;;;;;19.98;3.67;;;;;;;7.28;92.97;98976.34;4927406;29;20052;-45
2022/11/21 02:27:35;;;;;;;11.95;2.97;;;;;;;7.29;92.96;98977.91;4927958;29;20086;-44
2022/11/21 02:30:05;;;;;;;12.57;3.25;;;;;;;7.31;93.06;98970.06;4928485;29;20052;-44
2022/11/21 02:32:36;;;;;;;16.48;2.90;;;;;;;7.33;93.39;98967.78;4926701;29;20170;-45
2022/11/21 02:35:03;;;;;;;11.02;1.92;;;;;;;7.35;93.55;98959.94;4926369;29;20131;-44
2022/11/21 02:37:32;;;;;;;14.65;2.80;;;;;;;7.42;93.69;98934.47;4927340;29;20044;-48
2022/11/21 02:40:02;;;;;;;14.23;2.55;;;;;;;7.44;94.03;98934.91;4923856;29;20047;-45
2022/11/21 02:42:35;;;;;;;11.27;2.05;;;;;;;7.45;93.97;98915.28;4928988;29;20763;-44
2022/11/21 02:45:08;;;;;;;10.40;2.38;;;;;;;7.47;93.90;98923.16;4928486;29;20151;-44
2022/11/21 02:47:37;;;;;;;12.57;2.13;;;;;;;7.49;94.22;98910.63;4931729;29;20132;-45
2022/11/21 02:50:24;;;;;;;16.33;2.88;;;;;;;7.50;94.28;98906.69;4926689;29;20216;-47
2022/11/21 02:52:51;;;;;;;10.43;2.35;;;;;;;7.53;94.55;98907.91;4923146;29;20043;-44
2022/11/21 02:55:17;;;;;;;13.80;2.90;;;;;;;7.57;94.65;98917.81;4937251;29;20058;-47
2022/11/21 02:57:44;;;;;;;16.55;3.97;;;;;;;7.61;94.75;98926.13;4929448;29;20744;-44
2022/11/21 03:00:12;;;;;;;17.65;4.45;;;;;;;7.63;94.90;98918.28;4929351;29;20131;-45
2022/11/21 03:02:38;;;;;;;19.30;3.17;;;;;;;7.66;95.00;98915.59;4953250;23;20063;-46
2022/11/21 03:05:07;;;;;;;16.13;3.08;;;;;;;7.67;95.14;98910.91;4929203;29;20079;-47
2022/11/21 03:07:34;;;;;;;22.30;4.05;;;;;;;7.66;95.20;98906.53;4929621;29;20138;-45
2022/11/21 03:10:01;;;;;;;18.75;5.03;;;;;;;7.64;95.24;98893.16;4928644;29;20071;-47
2022/11/21 03:12:29;;;;;;;25.65;6.85;;;;;;;7.64;95.31;98867.56;4927918;29;20044;-45
2022/11/21 03:14:57;;;;;;;17.60;3.58;;;;;;;7.62;95.41;98865.19;4928964;29;20050;-46
2022/11/21 03:17:23;;;;;;;15.57;4.38;;;;;;;7.60;95.53;98850.97;4929146;29;20147;-45
2022/11/21 03:19:50;;;;;;;18.55;3.05;;;;;;;7.60;95.71;98842.72;4929076;29;20142;-45
2022/11/21 03:22:17;;;;;;;16.65;3.10;;;;;;;7.57;95.76;98824.19;4928454;29;20426;-46
2022/11/21 03:24:44;;;;;;;20.42;3.63;;;;;;;7.57;96.08;98823.41;4912008;29;20491;-45
2022/11/21 03:27:10;;;;;;;16.52;2.95;;;;;;;7.56;96.19;98797.03;4932525;29;20052;-47
2022/11/21 03:29:37;;;;;;;27.90;4.72;;;;;;;7.59;96.43;98788.84;4932477;29;20502;-44
2022/11/21 03:32:04;;;;;;;25.67;3.60;;;;;;;7.65;96.39;98781.03;4931702;29;20087;-48
2022/11/21 03:34:31;;;;;;;17.63;3.75;;;;;;;7.71;96.63;98777.56;4930370;29;20498;-46
2022/11/21 03:36:58;;;;;;;25.40;4.35;;;;;;;7.75;96.44;98761.09;4931483;29;20127;-46
2022/11/21 03:39:25;;;;;;;33.55;4.55;;;;;;;7.78;96.48;98755.63;4930663;29;20532;-44
2022/11/21 03:41:51;;;;;;;31.95;5.25;;;;;;;7.82;96.67;98730.88;4927573;29;20045;-44
2022/11/21 03:44:18;;;;;;;23.83;5.00;;;;;;;7.86;96.55;98718.72;4931849;29;20044;-46
2022/11/21 03:46:48;;;;;;;31.20;4.95;;;;;;;7.87;96.60;98705.75;4931390;29;20504;-45
2022/11/21 03:49:15;;;;;;;29.85;5.32;;;;;;;7.91;96.81;98690.84;4929379;29;20073;-45
2022/11/21 03:51:43;;;;;;;38.65;5.38;;;;;;;7.95;97.00;98666.88;4933524;29;20133;-45
2022/11/21 03:54:10;;;;;;;23.80;4.85;;;;;;;8.01;96.79;98647.25;4931800;29;20134;-47
2022/11/21 03:56:40;;;;;;;48.65;8.27;;;;;;;8.05;96.99;98631.56;4931236;29;20055;-45
2022/11/21 03:59:07;;;;;;;33.97;8.88;;;;;;;8.07;97.07;98618.19;4930623;29;20056;-46
2022/11/21 04:01:34;;;;;;;33.13;5.40;;;;;;;8.08;97.04;98592.97;4929172;29;20055;-45
2022/11/21 04:04:04;;;;;;;19.30;3.65;;;;;;;8.10;97.15;98593.38;4926232;29;20490;-45
2022/11/21 04:06:31;;;;;;;20.67;4.88;;;;;;;8.16;97.41;98574.53;4937812;29;20184;-46
2022/11/21 04:08:58;;;;;;;24.35;5.03;;;;;;;8.21;97.55;98558.44;4915019;29;20051;-45
2022/11/21 04:11:24;;;;;;;23.70;5.80;;;;;;;8.28;97.61;98561.31;4932096;29;20498;-45
2022/11/21 04:13:51;;;;;;;29.75;5.03;;;;;;;8.38;98.37;98568.84;4931643;29;20147;-46
2022/11/21 04:16:18;;;;;;;31.88;5.22;;;;;;;8.47;97.96;98574.03;4931405;29;20074;-46
2022/11/21 04:18:45;;;;;;;32.25;4.93;;;;;;;8.54;97.93;98561.09;4931285;29;20093;-46
2022/11/21 04:21:12;;;;;;;29.83;6.43;;;;;;;8.60;97.74;98558.75;4931882;29;20051;-46
2022/11/21 04:23:39;;;;;;;27.50;7.43;;;;;;;8.65;97.85;98550.13;4931372;29;20052;-44
2022/11/21 04:26:05;;;;;;;33.30;6.35;;;;;;;8.68;97.63;98524.53;4931221;29;20409;-44
2022/11/21 04:28:32;;;;;;;22.23;5.93;;;;;;;8.70;97.63;98524.13;4931562;29;20055;-45
2022/11/21 04:31:04;;;;;;;36.33;6.20;;;;;;;8.77;97.84;98527.69;4913066;29;20082;-48
2022/11/21 04:33:36;;;;;;;26.77;4.55;;;;;;;8.84;97.77;98508.41;4933273;29;20093;-46
2022/11/21 04:36:04;;;;;;;26.15;5.47;;;;;;;8.90;97.76;98515.16;4930521;29;20341;-45
2022/11/21 04:38:30;;;;;;;23.00;4.82;;;;;;;8.98;97.48;98511.22;4924517;29;20040;-50
2022/11/21 04:40:57;;;;;;;19.98;4.93;;;;;;;9.05;97.09;98486.41;4927370;29;20134;-47
2022/11/21 04:43:24;;;;;;;28.85;4.63;;;;;;;9.11;97.07;98486.81;4928478;29;20497;-45
2022/11/21 04:45:51;;;;;;;18.13;4.93;;;;;;;9.15;96.74;98469.13;4929252;29;20154;-46
2022/11/21 04:48:18;;;;;;;22.08;6.13;;;;;;;9.21;96.45;98452.97;4930160;29;20051;-45
2022/11/21 04:50:45;;;;;;;13.02;3.80;;;;;;;9.25;96.25;98464.00;4933918;29;20517;-44
2022/11/21 04:53:12;;;;;;;21.52;5.65;;;;;;;9.27;96.14;98456.09;4928493;29;20059;-50
2022/11/21 04:59:24;;;;;;;34.65;5.97;;;;;;;9.13;96.59;98454.88;4926828;29;20058;-47
2022/11/21 05:02:00;;;;;;;21.55;4.82;;;;;;;9.05;96.87;98436.72;4919353;29;20056;-44
2022/11/21 05:04:34;;;;;;;39.33;5.15;;;;;;;8.99;96.92;98423.72;4927286;29;20517;-46
2022/11/21 05:17:25;;;;;;;24.92;4.00;;;;;;;8.81;98.11;98396.09;4919668;29;20110;-43
2022/11/21 05:19:54;;;;;;;17.05;3.15;;;;;;;8.73;98.00;98394.50;4919577;29;20118;-52
2022/11/21 05:22:21;;;;;;;24.77;3.55;;;;;;;8.64;97.93;98385.78;4921757;29;20511;-43
2022/11/21 05:24:49;;;;;;;15.27;2.75;;;;;;;8.55;98.00;98383.38;4930097;29;20051;-43
2022/11/21 05:27:15;;;;;;;16.83;3.17;;;;;;;8.48;98.23;98375.09;4929629;29;20047;-44
2022/11/21 05:29:43;;;;;;;9.80;2.55;;;;;;;8.42;98.32;98370.34;4931887;29;20052;-43
2022/11/21 05:32:10;;;;;;;24.55;5.85;;;;;;;8.36;98.52;98369.16;4929215;29;20508;-43
2022/11/21 05:34:36;;;;;;;8.52;2.58;;;;;;;8.32;98.49;98368.34;4932262;29;20058;-46
2022/11/21 05:37:04;;;;;;;16.48;2.92;;;;;;;8.32;98.82;98362.81;4929834;29;20494;-44
2022/11/21 05:39:31;;;;;;;14.60;3.55;;;;;;;8.31;99.13;98336.44;4929519;29;20163;-49
2022/11/21 05:41:57;;;;;;;24.25;4.25;;;;;;;8.31;99.16;98330.94;4929057;29;20055;-44
2022/11/21 05:44:28;;;;;;;20.15;4.65;;;;;;;8.31;99.70;98328.19;4929438;29;20155;-44
2022/11/21 05:46:56;;;;;;;26.73;4.50;;;;;;;8.32;100.00;98308.47;4928803;29;20047;-44
2022/11/21 05:49:23;;;;;;;24.90;4.15;;;;;;;8.33;100.00;98317.53;4931834;29;20051;-43
2022/11/21 05:51:49;;;;;;;20.90;4.55;;;;;;;8.33;100.00;98306.53;4916626;29;20044;-44
2022/11/21 05:54:16;;;;;;;32.53;5.07;;;;;;;8.34;100.00;98302.59;4931792;29;20150;-43
2022/11/21 05:56:43;;;;;;;22.60;4.80;;;;;;;8.35;100.00;98287.63;4930415;29;20664;-45
2022/11/21 05:59:10;;;;;;;24.50;5.60;;;;;;;8.35;100.00;98293.13;4929882;29;20179;-45
2022/11/21 06:04:23;;;;;;;31.80;4.63;;;;;;;8.32;100.00;98274.59;4930532;29;20048;-43
2022/11/21 06:06:49;;;;;;;25.67;4.88;;;;;;;8.31;100.00;98265.53;4930415;29;20151;-43
2022/11/21 06:09:16;;;;;;;23.60;3.90;;;;;;;8.31;100.00;98259.25;4929824;29;20051;-46
2022/11/21 06:11:43;;;;;;;21.98;4.63;;;;;;;8.30;100.00;98246.66;4930282;29;20134;-44
2022/11/21 06:14:10;;;;;;;33.95;4.80;;;;;;;8.27;100.00;98234.44;4918870;29;20380;-43
2022/11/21 06:16:36;;;;;;;16.38;3.08;;;;;;;8.29;100.00;98236.78;4923962;29;20138;-43
2022/11/21 06:19:03;;;;;;;17.88;3.08;;;;;;;8.31;100.00;98239.97;4929783;29;20052;-43
2022/11/21 06:21:33;;;;;;;24.83;4.07;;;;;;;8.29;100.00;98232.06;4929963;29;20123;-45
2022/11/21 06:23:59;;;;;;;23.30;4.35;;;;;;;8.28;100.00;98232.47;4926693;29;20416;-43
2022/11/21 06:26:27;;;;;;;30.70;5.80;;;;;;;8.30;100.00;98227.34;4927650;29;20043;-43
2022/11/21 06:28:54;;;;;;;24.02;3.78;;;;;;;8.30;100.00;98227.34;4927099;29;20045;-43
2022/11/21 06:31:24;;;;;;;19.48;4.78;;;;;;;8.31;100.00;98223.44;4929622;29;20052;-44
2022/11/21 06:33:55;;;;;;;22.40;4.28;;;;;;;8.30;100.00;98216.31;4928475;29;20422;-45
2022/11/21 06:36:22;;;;;;;23.30;5.30;;;;;;;8.28;100.00;98221.44;4928194;29;20047;-45
2022/11/21 06:38:51;;;;;;;12.80;2.45;;;;;;;8.25;100.00;98200.94;4926858;29;20078;-43
2022/11/21 06:41:21;;;;;;;11.52;3.00;;;;;;;8.25;100.00;98197.38;4928448;29;20044;-43
2022/11/21 06:43:48;;;;;;;17.10;2.67;;;;;;;8.23;100.00;98199.75;4929270;29;20087;-45
2022/11/21 06:46:15;;;;;;;21.88;3.17;;;;;;;8.22;100.00;98185.19;4929267;29;20155;-44
2022/11/21 06:48:42;;;;;;;18.45;2.92;;;;;;;8.21;100.00;98189.09;4927072;29;20512;-44
2022/11/21 06:51:23;;;;;;;18.08;2.92;;;;;;;8.20;100.00;98192.25;4927581;29;20050;-44
2022/11/21 06:53:54;;;;;;;20.63;5.80;;;;;;;8.16;100.00;98172.97;4927962;29;20039;-44
2022/11/21 06:56:23;;;;;;;29.07;4.03;;;;;;;8.14;100.00;98185.56;4927280;29;20050;-43
2022/11/21 06:58:49;;;;;;;19.65;3.92;;;;;;;8.13;100.00;98172.97;4930108;29;20044;-46
2022/11/21 07:01:17;;;;;;;24.02;3.92;;;;;;;8.13;100.00;98162.72;4931585;29;20055;-43
2022/11/21 07:03:44;;;;;;;16.70;2.88;;;;;;;8.12;100.00;98143.81;4932290;29;20043;-46
2022/11/21 07:06:11;;;;;;;8.93;2.78;;;;;;;8.10;100.00;98140.69;4931677;29;20075;-46
2022/11/21 07:08:39;;;;;;;17.02;2.72;;;;;;;8.10;100.00;98133.19;4930363;29;20043;-43
2022/11/21 07:11:09;;;;;;;8.63;2.20;;;;;;;8.08;100.00;98120.97;4932731;29;20063;-44
2022/11/21 07:13:50;;;;;;;11.23;2.17;;;;;;;8.03;100.00;98124.13;4930610;29;20055;-46
2022/11/21 07:16:17;;;;;;;22.30;3.20;;;;;;;7.99;100.00;98102.09;4931995;29;20134;-43
2022/11/21 07:18:44;;;;;;;21.38;3.17;;;;;;;8.00;100.00;98098.16;4929243;29;20441;-43
2022/11/21 07:21:11;;;;;;;13.57;2.63;;;;;;;8.02;100.00;98067.47;4931410;29;20043;-43
2022/11/21 07:23:38;;;;;;;16.73;2.97;;;;;;;8.03;100.00;98074.53;4912761;29;20072;-42
2022/11/21 07:26:07;;;;;;;18.08;3.05;;;;;;;8.07;100.00;98073.38;4929479;29;20048;-42
2022/11/21 07:28:34;;;;;;;19.02;4.43;;;;;;;8.12;100.00;98072.97;4930144;29;20055;-44
2022/11/21 07:31:02;;;;;;;22.48;4.00;;;;;;;8.17;100.00;98063.50;4916251;29;20127;-43
2022/11/21 07:33:37;;;;;;;20.42;4.78;;;;;;;8.19;100.00;98058.41;4931897;29;20102;-43
2022/11/21 07:36:04;;;;;;;18.02;2.88;;;;;;;8.24;100.00;98058.00;4932031;29;20399;-45
2022/11/21 07:38:31;;;;;;;12.80;2.85;;;;;;;8.25;100.00;98054.84;4935303;29;20054;-45
2022/11/21 07:40:57;;;;;;;21.05;3.97;;;;;;;8.27;100.00;98057.25;4930511;29;20064;-43
2022/11/21 07:43:24;;;;;;;22.35;3.92;;;;;;;8.25;100.00;98060.38;4931822;29;20813;-44
2022/11/21 07:45:51;;;;;;;22.58;4.60;;;;;;;8.22;100.00;98043.81;4931663;29;20043;-43
2022/11/21 07:48:18;;;;;;;24.92;4.43;;;;;;;8.19;100.00;98045.41;4930181;29;20429;-48
2022/11/21 07:50:44;;;;;;;18.38;3.63;;;;;;;8.18;100.00;98048.56;4916805;29;20052;-43
2022/11/21 07:53:12;;;;;;;19.02;2.33;;;;;;;8.14;100.00;98039.50;4913427;29;20521;-44
2022/11/21 07:55:38;;;;;;;14.70;2.47;;;;;;;8.11;100.00;98038.31;4930633;29;20051;-43
2022/11/21 07:58:09;;;;;;;14.23;2.63;;;;;;;8.10;100.00;98019.44;4931282;29;20047;-44
2022/11/21 08:00:39;;;;;;;18.65;3.00;;;;;;;8.08;100.00;98010.75;4932024;29;20516;-44
2022/11/21 08:03:06;;;;;;;15.52;3.25;;;;;;;8.09;100.00;98006.84;4893396;29;20060;-45
2022/11/21 08:05:36;;;;;;;18.05;4.47;;;;;;;8.10;100.00;98003.66;4894236;29;20044;-43
2022/11/21 08:08:04;;;;;;;21.45;4.05;;;;;;;8.12;100.00;97995.03;4893909;29;20055;-45
2022/11/21 08:10:32;;;;;;;29.63;4.03;;;;;;;8.11;100.00;97987.94;4893781;29;20147;-43
2022/11/21 08:12:59;;;;;;;20.88;4.05;;;;;;;8.11;100.00;97987.94;4891727;29;20044;-44
2022/11/21 08:15:26;;;;;;;17.00;2.78;;;;;;;8.11;100.00;97990.69;4894039;29;20449;-43
2022/11/21 08:17:52;;;;;;;28.13;3.88;;;;;;;8.13;100.00;97975.31;4894088;29;20407;-43
2022/11/21 08:20:19;;;;;;;26.42;6.13;;;;;;;8.15;100.00;97977.69;4893553;29;20052;-43
2022/11/21 08:22:46;;;;;;;24.90;4.03;;;;;;;8.18;100.00;97955.63;4893837;29;20380;-43
2022/11/21 08:25:14;;;;;;;28.60;3.15;;;;;;;8.19;100.00;97945.41;4890031;29;20057;-45
2022/11/21 08:27:41;;;;;;;18.00;3.47;;;;;;;8.19;100.00;97934.38;4887901;29;20479;-44
2022/11/21 08:30:10;;;;;;;22.35;3.80;;;;;;;8.20;100.00;97947.00;4889768;29;20104;-43
2022/11/21 08:32:37;;;;;;;17.90;3.92;;;;;;;8.20;100.00;97930.44;4889151;29;20044;-43
2022/11/21 08:35:06;;;;;;;24.45;4.65;;;;;;;8.21;100.00;97915.47;4889622;29;20103;-45
2022/11/21 08:37:33;;;;;;;25.92;3.22;;;;;;;8.23;100.00;97918.63;4885385;29;20051;-43
2022/11/21 08:40:01;;;;;;;14.82;2.88;;;;;;;8.24;100.00;97909.16;4885830;29;20045;-42
2022/11/21 08:42:28;;;;;;;26.33;4.03;;;;;;;8.27;100.00;97920.22;4890441;29;20120;-46
2022/11/21 08:44:54;;;;;;;24.30;3.50;;;;;;;8.29;100.00;97906.03;4890253;29;20051;-44
2022/11/21 08:47:21;;;;;;;21.63;5.85;;;;;;;8.29;100.00;97906.81;4891772;29;20041;-44
2022/11/21 08:49:48;;;;;;;23.90;4.03;;;;;;;8.29;100.00;97889.50;4890816;29;20479;-44
2022/11/21 08:52:16;;;;;;;21.60;3.53;;;;;;;8.28;100.00;97882.44;4889758;29;20050;-47
2022/11/21 08:54:44;;;;;;;22.83;3.85;;;;;;;8.26;100.00;97879.25;4892116;29;20108;-43
2022/11/21 08:57:11;;;;;;;20.25;4.95;;;;;;;8.24;100.00;97870.56;4888723;29;20063;-44
2022/11/21 08:59:38;;;;;;;28.10;5.00;;;;;;;8.22;100.00;97868.25;4890906;29;20052;-46
2022/11/21 09:02:05;;;;;;;23.40;5.72;;;;;;;8.21;100.00;97843.81;4914250;29;20067;-43
2022/11/21 09:04:32;;;;;;;25.70;3.90;;;;;;;8.22;100.00;97857.22;4931316;29;20134;-45
2022/11/21 09:07:00;;;;;;;32.67;4.50;;;;;;;8.24;100.00;97843.03;4931663;29;20055;-44
2022/11/21 09:09:27;;;;;;;18.52;5.50;;;;;;;8.26;100.00;97848.94;4930939;29;20040;-44
2022/11/21 09:11:54;;;;;;;18.58;4.57;;;;;;;8.24;100.00;97848.53;4927775;29;20393;-45
2022/11/21 09:19:57;;;;;;;23.73;3.88;;;;;;;8.31;100.00;97809.97;4927735;29;20055;-48
2022/11/21 09:22:27;;;;;;;22.73;5.65;;;;;;;8.32;100.00;97828.06;4930628;29;20048;-43
2022/11/21 09:24:54;;;;;;;19.25;3.13;;;;;;;8.32;100.00;97801.28;4931287;29;20051;-43
2022/11/21 09:27:21;;;;;;;17.10;3.55;;;;;;;8.34;100.00;97803.66;4932106;29;20150;-43
2022/11/21 09:29:48;;;;;;;27.58;3.65;;;;;;;8.36;100.00;97806.78;4929435;29;20051;-45
2022/11/21 09:32:21;;;;;;;29.08;5.07;;;;;;;8.37;100.00;97811.88;4931506;29;20083;-43
2022/11/21 09:34:47;;;;;;;23.15;3.67;;;;;;;8.37;100.00;97820.16;4915847;29;20058;-48
2022/11/21 09:37:14;;;;;;;21.73;3.50;;;;;;;8.39;100.00;97822.53;4919118;29;20142;-44
2022/11/21 09:39:41;;;;;;;15.80;2.75;;;;;;;8.37;100.00;97819.38;4929395;29;20055;-45
2022/11/21 09:42:23;;;;;;;19.67;4.20;;;;;;;8.36;100.00;97806.78;4929146;29;20062;-47
2022/11/21 09:45:03;;;;;;;28.25;4.55;;;;;;;8.35;100.00;97794.19;4932347;29;20054;-43
2022/11/21 09:47:44;;;;;;;24.52;3.83;;;;;;;8.36;100.00;97806.78;4931575;29;20047;-43
2022/11/21 09:50:11;;;;;;;27.88;6.25;;;;;;;8.34;100.00;97815.44;4929142;29;20142;-46
2022/11/21 09:53:11;;;;;;;25.50;4.70;;;;;;;8.34;100.00;97815.44;4910032;29;20521;-43
2022/11/21 09:55:41;;;;;;;23.48;4.65;;;;;;;8.34;100.00;97809.94;4931394;29;20104;-45
2022/11/21 09:58:31;;;;;;;14.57;3.63;;;;;;;8.34;100.00;97798.16;4926610;29;20710;-43
2022/11/21 10:00:58;;;;;;;20.75;3.88;;;;;;;8.34;100.00;97809.16;4930564;29;20067;-42
2022/11/21 10:03:29;;;;;;;27.13;5.53;;;;;;;8.33;100.00;97813.09;4930646;29;20050;-43
2022/11/21 10:06:28;;;;;;;18.95;3.80;;;;;;;8.31;100.00;97827.25;4926995;29;20541;-46
2022/11/21 10:09:00;;;;;;;11.45;2.67;;;;;;;8.20;100.00;97814.72;4914105;29;20044;-44
2022/11/21 10:14:57;;;;;;;10.10;1.30;;;;;;;7.75;100.00;97817.22;4927268;29;20419;-44
2022/11/21 10:17:37;;;;;;;10.77;1.45;;;;;;;7.58;100.00;97823.53;4922199;29;20059;-49
2022/11/21 10:20:33;;;;;;;1.27;0.50;;;;;;;7.43;100.00;97815.72;4908011;29;20040;-44
2022/11/21 10:23:26;;;;;;;2.28;0.40;;;;;;;7.23;100.00;97823.56;4928424;29;20063;-46
2022/11/21 10:26:03;;;;;;;;;;;;;;;6.97;100.00;97829.47;4927424;29;20102;-43
2022/11/21 10:29:13;;;;;;;3.15;0.80;;;;;;;6.80;100.00;97833.00;4929700;29;20021;-44
2022/11/21 10:31:42;;;;;;;2.03;0.40;;;;;;;6.67;100.00;97825.13;4907148;29;20497;-44
2022/11/21 10:34:17;;;;;;;2.15;0.40;;;;;;;6.55;100.00;97844.72;4924987;29;20060;-45
2022/11/21 10:36:50;;;;;;;3.72;0.73;;;;;;;6.43;100.00;97856.09;4929279;29;20143;-45
2022/11/21 10:39:31;;;;;;;3.22;1.10;;;;;;;6.37;100.00;97852.16;4922836;29;20052;-44
2022/11/21 10:42:14;;;;;;;4.65;2.10;;;;;;;6.32;100.00;97848.97;4929179;29;20047;-44
2022/11/21 10:47:36;;;;;;;4.25;1.77;;;;;;;6.25;100.00;97863.47;4928368;29;20119;-46
2022/11/21 10:50:09;;;;;;;5.80;1.80;;;;;;;6.24;100.00;97861.13;4927905;29;20031;-44
2022/11/21 10:52:49;;;;;;;6.70;1.90;;;;;;;6.26;100.00;97873.28;4931455;29;20044;-43
2022/11/21 10:55:17;;;;;;;3.17;0.90;;;;;;;6.26;100.00;97876.03;4930094;29;20107;-44
2022/11/21 10:57:53;;;;;;;2.45;0.90;;;;;;;6.25;100.00;97879.94;4929906;29;20151;-47
2022/11/21 11:00:24;;;;;;;5.03;1.00;;;;;;;6.23;100.00;97876.00;4929953;29;20051;-43
2022/11/21 11:02:54;;;;;;;3.05;0.95;;;;;;;6.24;100.00;97892.13;4911539;29;20059;-43
2022/11/21 11:05:25;;;;;;;7.60;1.20;;;;;;;6.24;100.00;97894.09;4929948;29;20099;-44
2022/11/21 11:08:13;;;;;;;7.72;1.08;;;;;;;6.22;100.00;97910.97;4930053;29;20044;-43
2022/11/21 11:10:59;;;;;;;2.58;1.00;;;;;;;6.24;100.00;97911.34;4927027;29;20141;-45
2022/11/21 11:16:20;;;;;;;1.85;0.93;;;;;;;6.30;100.00;97920.78;4928750;29;20051;-43
2022/11/21 11:18:57;;;;;;;6.90;0.88;;;;;;;6.30;100.00;97926.28;4926352;29;20126;-46
2022/11/21 11:21:30;;;;;;;5.30;1.05;;;;;;;6.30;100.00;97925.53;4925567;29;20090;-44
2022/11/21 11:24:27;;;;;;;2.92;1.08;;;;;;;6.25;100.00;97925.88;4929251;29;20055;-44
2022/11/21 11:27:01;;;;;;;2.15;0.65;;;;;;;6.23;100.00;97926.25;4926304;29;20058;-44
2022/11/21 11:29:30;;;;;;;3.92;1.45;;;;;;;6.24;100.00;97927.03;4903302;29;20055;-44
2022/11/21 11:31:57;;;;;;;9.13;1.48;;;;;;;6.24;100.00;97922.34;4928776;29;20096;-42
2022/11/21 11:34:37;;;;;;;1.95;0.93;;;;;;;6.26;100.00;97914.50;4928552;29;20498;-43
2022/11/21 11:37:10;;;;;;;2.90;0.75;;;;;;;6.29;100.00;97918.44;4908421;29;20375;-43
2022/11/21 11:40:04;;;;;;;1.35;0.52;;;;;;;6.36;100.00;97921.19;4890923;29;20048;-49
2022/11/21 11:49:08;;;;;;;5.05;1.00;;;;;;;6.40;100.00;97887.09;4928710;29;20131;-44
2022/11/21 11:52:02;;;;;;;4.88;0.88;;;;;;;6.42;100.00;97878.44;4930769;29;20052;-43
2022/11/21 11:54:46;;;;;;;2.75;0.95;;;;;;;6.46;100.00;97877.28;4916568;29;20059;-44
2022/11/21 11:57:13;;;;;;;2.72;1.65;;;;;;;6.51;100.00;97870.66;4930973;29;20065;-45
2022/11/21 11:59:57;;;;;;;3.42;1.00;;;;;;;6.53;100.00;97866.34;4932094;29;20048;-48
2022/11/21 12:02:50;;;;;;;5.70;0.82;;;;;;;6.51;100.00;97860.41;4918779;29;20056;-45
2022/11/21 12:05:24;;;;;;;5.95;1.58;;;;;;;6.50;100.00;97855.31;4931319;29;20051;-48
2022/11/21 12:08:08;;;;;;;7.55;1.80;;;;;;;6.48;100.00;97857.69;4931522;29;20040;-46
2022/11/21 12:13:56;;;;;;;2.60;0.82;;;;;;;6.50;100.00;97841.56;4931729;29;20060;-44
2022/11/21 12:16:26;;;;;;;3.88;0.98;;;;;;;6.50;100.00;97842.38;4926197;29;20066;-48
2022/11/21 12:19:07;;;;;;;5.75;1.42;;;;;;;6.47;100.00;97843.13;4925589;29;20043;-51
2022/11/21 12:21:34;;;;;;;2.63;0.73;;;;;;;6.48;100.00;97850.22;4926745;29;20079;-45
2022/11/21 12:24:03;;;;;;;5.90;1.17;;;;;;;6.49;100.00;97845.50;4929307;29;20057;-47
2022/11/21 12:26:42;;;;;;;6.28;1.10;;;;;;;6.50;100.00;97845.13;4932787;29;20074;-46